Pagrindinis puslapis
METAR-TAF:

METAR-TAF

Oro uostai :

Mauricijus, Mauricijus

platuma: 20-26S, ilguma: 057-40E, Aukštis: 55 m

Dabartinis oras

Ataskaita buvo paskelbta 1 valandą ir 9 minutes, ne 04:00 UTC
Vėjas 7 kt iš Rytų/Pietryčių
Temperatūra 27°C
Drėgmė 70%
Slėgis 1013 hPa
Matomumas 10 km arba daugiau
Išsisklaidę debesys ne aukštis 1700 ft

METAR: FIMP 200400Z 12007KT 9999 SCT017 27/21 Q1013

Laikas: 09:09 (05:09 UTC)

Prognozė

Ataskaita buvo paskelbta 5 valandos ir 39 minutes, ne 23:30 UTC
Prognozė galioja nuo 20 metu 00 UTC su 21 metu 06 UTC
Vėjas 3 kt nuo kintamojo kryptimis
Matomumas 10 km arba daugiau
Išsisklaidę debesys ne aukštis 1600 ft
Tikimybė 30% :
Laikinai
nuo 20 metu 00 UTC su 20 metu 08 UTC
Matomumas: 7000 m
Mažai debesys ne aukštis 1000 ft
Išsisklaidę debesys ne aukštis 1500 ft
Su prošvaistėmis ne aukštis 5000 ft
lietus
Tapsmas
nuo 20 metu 04 UTC su 20 metu 06 UTC
Vėjas 6 kt iš Rytų/Pietryčių

TAF: FIMP 192330Z 2000/2106 VRB03KT 9999 SCT016 PROB30 TEMPO 2000/2008 7000 -SHRA FEW010 SCT015 BKN050 BECMG 2004/2006 12006KT

Orai ataskaitas ir orų prognozės (METAR, TAF).

turimą stotys yra geltonos ir raudonos taškus žemėlapyje.

Perkelti pele per norėdami pamatyti stoties vardą.

Tada spustelėkite, norėdami matyti oro stebėjimo ir prognozės.

Norėdami pakeisti žemėlapį: spustelėkite ant žalios mygtukų su juodo kryžiaus žemyn,; žalią mygtuką su brūkšneliu, jei norite nutolinti; arba žalių rodyklių gretimoms žemėlapius.


METAR-TAF: